Online since October of 2007


Active alerts

Marquette
  Details for Marquette Winter Weather Advisory

Bigbaywx more information Bigbaywx


mount mesnard more information Mount Mesnard


visit our other weather sites:

Template documentation
and downloads

And another site


CBI


nearby metar reports

   
KSAW - Sawyer, Michigan
updated: Dec 11 2019 3:45 pm
partly cloudy  
partly cloudy  
   wind: west 12.7 mph<br />Gust to 12.7 mph
wind: west 12.7 mph
Gust to 12.7 mph
temperature: 8.6°F
wind chill: -7.6°F
dew point: -0.4°F
humidity: 66%
barometer: 30.24 inHg
clouds: partly cloudy
visibility: 10 mi
cloud details: partly cloudy 762 m
KSAW 112045Z 27011G16KT 10SM SCT025 M13/M18 A3024
KESC - Escanaba, Michigan
updated: Dec 11 2019 3:56 pm
clear  
clear  
   wind: west 13.8 mph
wind: west 13.8 mph
temperature: 8.6°F
wind chill: -7.6°F
dew point: -2.2°F
humidity: 61%
barometer: 30.34 inHg
clouds: clear
visibility: 10 mi
cloud details: clear
KESC 112056Z AUTO 26012KT 10SM CLR M13/M19 A3034 RMK AO2 SLP296 60000 T11281189 53018 FZRANO
KIMT - Iron Mountain, MI
updated: Dec 11 2019 3:54 pm
clear  
clear  
   wind: west 10.4 mph
wind: west 10.4 mph
temperature: 8.6°F
wind chill: -5.8°F
dew point: -4°F
humidity: 56%
barometer: 30.28 inHg
clouds: clear
visibility: 10 mi
cloud details: clear
KIMT 112054Z AUTO 28009KT 10SM CLR M13/M20 A3028 RMK AO2 SLP287 T11331200 53016
KGRB - Green Bay, WI
updated: Dec 11 2019 3:53 pm
clear  
clear  
   wind: west 10.4 mph
wind: west 10.4 mph
temperature: 8.6°F
wind chill: -5.8°F
dew point: -5.8°F
humidity: 51%
barometer: 30.43 inHg
clouds: clear
visibility: 10 mi
cloud details: clear
KGRB 112053Z 27009KT 10SM CLR M13/M21 A3043 RMK AO2 SLPNO T11331211 53014
KDET - Detroit, MI
updated: Dec 11 2019 3:53 pm
clear  
clear  
   wind: west 18.4 mph<br />Gust to 18.4 mph
wind: west 18.4 mph
Gust to 18.4 mph
temperature: 24.8°F
wind chill: 10.4°F
dew point: 8.6°F
humidity: 50%
barometer: 30.41 inHg
clouds: clear
visibility: 10 mi
cloud details: clear
KDET 112053Z 28016G24KT 10SM CLR M04/M13 A3041 RMK AO2 SLP306 T10441133 53032
 

script developed by  Saratoga-weather.org adapted for the template by  Weerstation Leuven

you find our weather info also at:

Weather Underground

midwestern weather network

WeatherlinkIP

Citizen Weather Observer Program (CWOP)

equipment we use:

weather-station
Davis VP2

weather-program
Davis Weatherlink.Com

Davis VP2

Davis Weatherlink.Com